createdAt,value
2018-07-17T00:00:25.040Z,85.92
2018-07-17T00:02:54.610Z,86.12
2018-07-17T00:05:24.276Z,85.76
2018-07-17T00:07:54.096Z,86.43
2018-07-17T00:10:23.668Z,86.40
2018-07-17T00:12:53.323Z,86.06
2018-07-17T00:15:22.891Z,85.11
2018-07-17T00:17:52.486Z,85.53
2018-07-17T00:20:22.040Z,86.05
2018-07-17T00:22:51.606Z,86.69
2018-07-17T00:25:21.175Z,87.45
2018-07-17T00:27:50.742Z,87.20
2018-07-17T00:30:20.311Z,88.72
2018-07-17T00:32:49.877Z,88.39
2018-07-17T00:35:19.445Z,87.92
2018-07-17T00:37:49.020Z,87.92
2018-07-17T00:40:18.599Z,87.86
2018-07-17T00:42:48.151Z,88.39
2018-07-17T00:45:18.684Z,88.15
2018-07-17T00:47:48.231Z,87.85
2018-07-17T00:50:17.771Z,87.81
2018-07-17T00:52:47.323Z,87.67
2018-07-17T00:55:16.877Z,88.09
2018-07-17T00:57:46.490Z,87.97
2018-07-17T01:00:16.034Z,88.13
2018-07-17T01:02:50.864Z,88.48
2018-07-17T01:05:25.623Z,87.67
2018-07-17T01:08:00.212Z,88.00
2018-07-17T01:10:35.099Z,88.15
2018-07-17T01:13:03.700Z,88.40
2018-07-17T01:15:36.609Z,88.16
2018-07-17T01:18:06.211Z,88.73
2018-07-17T01:20:35.783Z,89.25
2018-07-17T01:23:05.363Z,89.21
2018-07-17T01:25:35.004Z,89.44
2018-07-17T01:28:04.555Z,89.65
2018-07-17T01:30:34.124Z,89.97
2018-07-17T01:33:03.695Z,89.91
2018-07-17T01:35:33.281Z,89.37
2018-07-17T01:38:02.836Z,89.02
2018-07-17T01:40:32.394Z,89.10
2018-07-17T01:43:02.001Z,88.82
2018-07-17T01:45:31.545Z,89.66
2018-07-17T01:48:01.180Z,89.93
2018-07-17T01:50:30.728Z,89.17
2018-07-17T01:53:00.800Z,89.52
2018-07-17T01:55:30.469Z,89.23
2018-07-17T01:58:00.023Z,89.22
2018-07-17T02:00:29.574Z,89.12
2018-07-17T02:02:59.137Z,89.36
2018-07-17T02:05:28.703Z,89.71
2018-07-17T02:07:58.260Z,89.72
2018-07-17T02:10:27.808Z,89.50
2018-07-17T02:12:57.360Z,89.07
2018-07-17T02:15:26.917Z,89.37
2018-07-17T02:17:56.536Z,89.00
2018-07-17T02:20:26.109Z,89.23
2018-07-17T02:22:55.736Z,89.68
2018-07-17T02:25:25.500Z,89.15
2018-07-17T02:27:55.341Z,89.81
2018-07-17T02:30:25.024Z,89.38
2018-07-17T02:32:54.745Z,89.15
2018-07-17T02:35:24.315Z,89.46
2018-07-17T02:37:53.880Z,89.01
2018-07-17T02:40:23.472Z,89.48
2018-07-17T02:42:53.355Z,90.13
2018-07-17T02:45:22.940Z,89.79
2018-07-17T02:47:52.501Z,89.82
2018-07-17T02:50:22.074Z,89.27
2018-07-17T02:52:51.654Z,89.63
2018-07-17T02:55:21.225Z,89.75
2018-07-17T02:57:50.777Z,90.00
2018-07-17T03:00:20.368Z,90.35
2018-07-17T03:02:49.919Z,90.88
2018-07-17T03:05:19.512Z,90.04
2018-07-17T03:07:49.080Z,90.68
2018-07-17T03:10:18.708Z,90.50
2018-07-17T03:12:48.279Z,90.81
2018-07-17T03:15:17.835Z,90.74
2018-07-17T03:17:47.401Z,91.51
2018-07-17T03:20:16.983Z,91.57
2018-07-17T03:22:46.544Z,91.99
2018-07-17T03:25:16.136Z,91.39
2018-07-17T03:27:45.697Z,91.52
2018-07-17T03:30:15.323Z,91.71
2018-07-17T03:32:45.444Z,92.33
2018-07-17T03:35:15.060Z,91.91
2018-07-17T03:37:44.650Z,91.49
2018-07-17T03:40:14.212Z,91.53
2018-07-17T03:42:43.776Z,91.47
2018-07-17T03:45:13.340Z,91.20
2018-07-17T03:47:42.904Z,92.05
2018-07-17T03:50:12.488Z,91.45
2018-07-17T03:52:42.060Z,91.55
2018-07-17T03:55:11.636Z,92.13
2018-07-17T03:57:41.211Z,91.58
2018-07-17T04:00:10.771Z,92.00
2018-07-17T04:02:40.326Z,91.57
2018-07-17T04:05:09.899Z,91.96
2018-07-17T04:07:39.451Z,92.51
2018-07-17T04:10:09.019Z,92.24
2018-07-17T04:12:38.572Z,92.23
2018-07-17T04:15:08.132Z,92.32
2018-07-17T04:17:37.696Z,92.44
2018-07-17T04:20:07.257Z,91.92
2018-07-17T04:22:36.811Z,92.05
2018-07-17T04:25:06.394Z,91.83
2018-07-17T04:27:35.952Z,91.74
2018-07-17T04:30:05.528Z,91.80
2018-07-17T04:32:35.089Z,91.89
2018-07-17T04:35:04.706Z,91.99
2018-07-17T04:37:34.284Z,91.87
2018-07-17T04:40:04.079Z,91.97
2018-07-17T04:42:33.647Z,91.94
2018-07-17T04:45:03.295Z,91.35
2018-07-17T04:47:33.072Z,91.23
2018-07-17T04:50:03.715Z,91.26
2018-07-17T04:52:33.510Z,91.43
2018-07-17T04:55:03.280Z,91.19
2018-07-17T04:57:32.900Z,91.19
2018-07-17T05:00:02.520Z,91.25
2018-07-17T05:02:32.201Z,91.27
2018-07-17T05:05:01.824Z,91.16
2018-07-17T05:07:31.620Z,90.59
2018-07-17T05:10:01.939Z,90.82
2018-07-17T05:12:31.616Z,90.77
2018-07-17T05:15:01.284Z,90.12
2018-07-17T05:17:30.876Z,89.75
2018-07-17T05:20:00.579Z,89.54
2018-07-17T05:22:30.139Z,89.36
2018-07-17T05:24:59.836Z,88.58
2018-07-17T05:27:29.468Z,88.26
2018-07-17T05:29:59.016Z,87.31
2018-07-17T05:32:28.572Z,87.90
2018-07-17T05:34:58.141Z,86.61
2018-07-17T05:37:27.709Z,86.18
2018-07-17T05:39:57.458Z,86.07
2018-07-17T05:42:26.999Z,84.36
2018-07-17T05:44:56.685Z,84.20
2018-07-17T05:47:26.239Z,84.31
2018-07-17T05:49:55.784Z,83.67
2018-07-17T05:52:25.342Z,83.44
2018-07-17T05:54:55.032Z,83.40
2018-07-17T05:57:24.588Z,82.21
2018-07-17T05:59:54.143Z,80.01
2018-07-17T06:02:23.756Z,81.24
2018-07-17T06:04:53.605Z,80.73
2018-07-17T06:07:23.152Z,79.24
2018-07-17T06:09:52.696Z,79.05
2018-07-17T06:12:22.423Z,79.30
2018-07-17T06:14:51.975Z,78.79
2018-07-17T06:17:21.544Z,77.49
2018-07-17T06:19:51.112Z,77.16
2018-07-17T06:22:20.665Z,76.40
2018-07-17T06:24:50.215Z,77.37
2018-07-17T06:27:19.768Z,76.33
2018-07-17T06:29:49.329Z,75.15
2018-07-17T06:32:18.975Z,74.75
2018-07-17T06:34:48.524Z,75.75
2018-07-17T06:37:18.071Z,75.18
2018-07-17T06:39:47.640Z,75.75
2018-07-17T06:42:17.662Z,74.44
2018-07-17T06:44:47.461Z,75.63
2018-07-17T06:47:17.032Z,73.61
2018-07-17T06:49:46.587Z,73.14
2018-07-17T06:52:16.229Z,72.62
2018-07-17T06:54:45.879Z,73.90
2018-07-17T06:57:15.463Z,74.20
2018-07-17T06:59:45.092Z,73.05
2018-07-17T07:02:14.640Z,73.28
2018-07-17T07:04:44.204Z,72.40
2018-07-17T07:07:13.760Z,71.72
2018-07-17T07:09:43.309Z,73.61
2018-07-17T07:12:12.890Z,74.50
2018-07-17T07:14:42.560Z,72.59
2018-07-17T07:17:12.108Z,72.00
2018-07-17T07:19:41.642Z,73.64
2018-07-17T07:22:11.192Z,71.94
2018-07-17T07:24:40.751Z,71.58
2018-07-17T07:27:10.345Z,66.69
2018-07-17T07:29:39.909Z,61.23
2018-07-17T07:32:09.476Z,55.86
2018-07-17T07:34:39.028Z,51.71
2018-07-17T07:37:08.579Z,48.78
2018-07-17T07:39:38.235Z,49.38
2018-07-17T07:42:07.811Z,46.98
2018-07-17T07:44:37.365Z,42.89
2018-07-17T07:47:06.948Z,42.88
2018-07-17T07:49:36.512Z,43.05
2018-07-17T07:52:06.149Z,44.76
2018-07-17T07:54:36.037Z,42.46
2018-07-17T07:57:05.693Z,42.91
2018-07-17T07:59:35.281Z,39.55
2018-07-17T08:02:04.828Z,38.51
2018-07-17T08:04:34.405Z,38.91
2018-07-17T08:07:03.985Z,42.50
2018-07-17T08:09:33.559Z,42.52
2018-07-17T08:12:03.145Z,40.01
2018-07-17T08:14:32.767Z,39.61
2018-07-17T08:17:02.334Z,41.03
2018-07-17T08:19:31.880Z,41.08
2018-07-17T08:22:01.457Z,40.28
2018-07-17T08:24:30.996Z,39.14
2018-07-17T08:27:00.549Z,39.12
2018-07-17T08:29:30.104Z,37.44
2018-07-17T08:31:59.736Z,38.33
2018-07-17T08:34:29.296Z,40.89
2018-07-17T08:36:58.956Z,38.77
2018-07-17T08:39:28.559Z,36.93
2018-07-17T08:41:58.395Z,37.22
2018-07-17T08:44:27.949Z,40.41
2018-07-17T08:46:57.492Z,40.59
2018-07-17T08:49:27.103Z,39.47
2018-07-17T08:51:56.658Z,39.09
2018-07-17T08:54:26.293Z,41.09
2018-07-17T08:56:55.853Z,40.52
2018-07-17T08:59:25.415Z,42.96
2018-07-17T09:01:54.961Z,44.53
2018-07-17T09:04:25.076Z,42.50
2018-07-17T09:06:54.640Z,44.48
2018-07-17T09:09:24.316Z,42.46
2018-07-17T09:11:54.034Z,46.72
2018-07-17T09:14:23.579Z,45.18
2018-07-17T09:16:53.131Z,44.57
2018-07-17T09:19:22.748Z,45.31
2018-07-17T09:21:52.308Z,45.31
2018-07-17T09:24:21.860Z,45.29
2018-07-17T09:26:51.412Z,43.41
2018-07-17T09:29:20.983Z,43.73
2018-07-17T09:31:50.539Z,45.47
2018-07-17T09:34:20.138Z,48.01
2018-07-17T09:36:49.692Z,42.05
2018-07-17T09:39:19.248Z,43.58
2018-07-17T09:41:48.806Z,40.65
2018-07-17T09:44:18.363Z,42.78
2018-07-17T09:46:47.984Z,41.21
2018-07-17T09:49:17.559Z,40.70
2018-07-17T09:51:47.115Z,40.92
2018-07-17T09:54:16.680Z,39.64
2018-07-17T09:56:46.242Z,41.33
2018-07-17T09:59:15.797Z,40.69
2018-07-17T10:01:50.523Z,40.62
2018-07-17T10:04:20.216Z,42.53
2018-07-17T10:06:49.763Z,39.30
2018-07-17T10:09:19.313Z,40.50
2018-07-17T10:11:48.871Z,41.75
2018-07-17T10:14:18.424Z,42.84
2018-07-17T10:16:47.977Z,42.47
2018-07-17T10:19:17.563Z,40.83
2018-07-17T10:21:47.116Z,39.23
2018-07-17T10:24:16.687Z,41.20
2018-07-17T10:26:46.338Z,39.62
2018-07-17T10:29:15.840Z,37.29
2018-07-17T10:31:45.395Z,38.11
2018-07-17T10:34:14.944Z,38.16
2018-07-17T10:36:44.508Z,37.80
2018-07-17T10:39:14.063Z,39.25
2018-07-17T10:41:43.611Z,39.07
2018-07-17T10:44:13.181Z,40.86
2018-07-17T10:46:42.848Z,39.58
2018-07-17T10:49:12.399Z,39.93
2018-07-17T10:51:42.020Z,41.23
2018-07-17T10:54:11.576Z,38.59
2018-07-17T10:56:41.180Z,37.10
2018-07-17T10:59:10.736Z,37.07
2018-07-17T11:01:40.282Z,39.04
2018-07-17T11:04:09.833Z,39.10
2018-07-17T11:06:39.372Z,39.25
2018-07-17T11:09:08.941Z,37.42
2018-07-17T11:11:38.487Z,34.68
2018-07-17T11:14:08.028Z,36.07
2018-07-17T11:16:37.588Z,32.51
2018-07-17T11:19:07.152Z,34.79
2018-07-17T11:21:36.709Z,35.38
2018-07-17T11:24:06.417Z,33.17
2018-07-17T11:26:35.985Z,30.74
2018-07-17T11:29:05.576Z,31.55
2018-07-17T11:31:35.131Z,33.25
2018-07-17T11:34:04.689Z,32.34
2018-07-17T11:36:34.243Z,35.13
2018-07-17T11:39:04.749Z,34.05
2018-07-17T11:41:34.324Z,34.16
2018-07-17T11:44:03.884Z,33.03
2018-07-17T11:46:33.436Z,32.44
2018-07-17T11:49:03.030Z,32.12
2018-07-17T11:51:32.605Z,32.14
2018-07-17T11:54:02.156Z,33.74
2018-07-17T11:56:31.788Z,33.92
2018-07-17T11:59:01.423Z,33.30
2018-07-17T12:01:30.956Z,32.88
2018-07-17T12:04:00.552Z,32.65
2018-07-17T12:06:30.117Z,36.32
2018-07-17T12:08:59.659Z,35.80
2018-07-17T12:11:29.269Z,34.37
2018-07-17T12:13:58.826Z,32.46
2018-07-17T12:16:28.383Z,32.61
2018-07-17T12:18:57.931Z,31.66
2018-07-17T12:21:27.495Z,34.43
2018-07-17T12:23:57.036Z,32.39
2018-07-17T12:26:26.597Z,32.65
2018-07-17T12:28:56.148Z,33.63
2018-07-17T12:31:25.704Z,33.26
2018-07-17T12:33:55.327Z,32.48
2018-07-17T12:36:24.877Z,34.03
2018-07-17T12:38:54.452Z,31.24
2018-07-17T12:41:24.010Z,33.29
2018-07-17T12:43:53.564Z,35.30
2018-07-17T12:46:23.119Z,33.14
2018-07-17T12:48:52.675Z,32.52
2018-07-17T12:51:22.259Z,33.06
2018-07-17T12:53:51.808Z,32.74
2018-07-17T12:56:21.487Z,33.21
2018-07-17T12:58:51.050Z,31.81
2018-07-17T13:01:20.608Z,32.58
2018-07-17T13:03:50.157Z,31.27
2018-07-17T13:06:19.796Z,32.79
2018-07-17T13:08:49.332Z,32.96
2018-07-17T13:11:18.876Z,30.34
2018-07-17T13:13:48.419Z,31.84
2018-07-17T13:16:17.984Z,31.20
2018-07-17T13:18:47.548Z,33.60
2018-07-17T13:21:17.188Z,31.99
2018-07-17T13:23:46.833Z,31.81
2018-07-17T13:26:16.320Z,31.79
2018-07-17T13:28:45.879Z,31.40
2018-07-17T13:31:15.430Z,29.68
2018-07-17T13:33:45.007Z,30.47
2018-07-17T13:36:14.860Z,31.53
2018-07-17T13:38:44.416Z,30.07
2018-07-17T13:41:13.968Z,31.10
2018-07-17T13:43:43.590Z,31.92
2018-07-17T13:46:13.120Z,30.10
2018-07-17T13:48:42.782Z,30.11
2018-07-17T13:51:12.375Z,30.54
2018-07-17T13:53:41.997Z,31.82
2018-07-17T13:56:11.566Z,29.77
2018-07-17T13:58:41.149Z,29.96
2018-07-17T14:01:10.728Z,34.71
2018-07-17T14:03:40.312Z,36.44
2018-07-17T14:06:09.892Z,38.32
2018-07-17T14:08:39.483Z,39.64
2018-07-17T14:11:09.443Z,40.46
2018-07-17T14:13:39.116Z,41.61
2018-07-17T14:16:08.679Z,42.46
2018-07-17T14:18:38.681Z,42.71
2018-07-17T14:21:08.391Z,42.66
2018-07-17T14:23:38.267Z,44.56
2018-07-17T14:26:07.959Z,45.74
2018-07-17T14:28:37.499Z,46.69
2018-07-17T14:31:07.233Z,44.90
2018-07-17T14:33:37.563Z,44.96
2018-07-17T14:36:07.568Z,44.76
2018-07-17T14:38:37.115Z,43.47
2018-07-17T14:41:06.856Z,41.78
2018-07-17T14:43:36.402Z,40.89
2018-07-17T14:46:05.964Z,41.12
2018-07-17T14:48:38.086Z,41.06
2018-07-17T14:51:10.123Z,38.66
2018-07-17T14:53:39.713Z,35.47
2018-07-17T14:56:09.661Z,35.90
2018-07-17T14:58:39.195Z,34.31
2018-07-17T15:01:08.752Z,34.06
2018-07-17T15:03:38.308Z,35.60
2018-07-17T15:06:07.868Z,33.42
2018-07-17T15:08:37.444Z,32.86
2018-07-17T15:11:06.996Z,34.91
2018-07-17T15:13:36.541Z,36.35
2018-07-17T15:16:06.100Z,36.92
2018-07-17T15:18:35.647Z,35.70
2018-07-17T15:21:05.244Z,37.16
2018-07-17T15:23:34.795Z,38.27
2018-07-17T15:26:04.364Z,38.35
2018-07-17T15:28:33.908Z,40.01
2018-07-17T15:31:03.464Z,38.97
2018-07-17T15:33:33.027Z,38.48
2018-07-17T15:36:02.580Z,40.00
2018-07-17T15:38:32.160Z,39.67
2018-07-17T15:41:01.733Z,40.31
2018-07-17T15:43:31.368Z,41.26
2018-07-17T15:46:00.965Z,40.87
2018-07-17T15:48:30.528Z,40.59
2018-07-17T15:51:00.168Z,40.79
2018-07-17T15:53:29.731Z,42.64
2018-07-17T15:55:59.279Z,41.39
2018-07-17T15:58:28.884Z,42.47
2018-07-17T16:00:58.495Z,41.63
2018-07-17T16:03:28.088Z,43.36
2018-07-17T16:05:57.708Z,42.72
2018-07-17T16:08:27.312Z,44.46
2018-07-17T16:10:56.916Z,43.84
2018-07-17T16:13:26.617Z,43.96
2018-07-17T16:15:56.125Z,42.88
2018-07-17T16:18:25.692Z,44.05
2018-07-17T16:20:55.293Z,44.55
2018-07-17T16:23:24.908Z,44.81
2018-07-17T16:25:54.669Z,45.71
2018-07-17T16:28:24.419Z,44.06
2018-07-17T16:30:54.077Z,44.61
2018-07-17T16:33:23.672Z,45.36
2018-07-17T16:35:53.307Z,45.12
2018-07-17T16:38:22.909Z,48.63
2018-07-17T16:40:52.516Z,44.11
2018-07-17T16:43:22.131Z,45.85
2018-07-17T16:45:51.771Z,46.23
2018-07-17T16:48:21.372Z,44.83
2018-07-17T16:50:51.031Z,43.57
2018-07-17T16:53:20.688Z,45.59
2018-07-17T16:55:50.344Z,43.14
2018-07-17T16:58:20.056Z,43.92
2018-07-17T17:00:49.696Z,45.87
2018-07-17T17:03:19.316Z,44.82
2018-07-17T17:05:48.963Z,43.33
2018-07-17T17:08:18.567Z,44.21
2018-07-17T17:10:48.259Z,44.38
2018-07-17T17:13:18.014Z,44.84
2018-07-17T17:15:47.695Z,43.76
2018-07-17T17:18:17.324Z,44.69
2018-07-17T17:20:46.914Z,45.54
2018-07-17T17:23:16.557Z,44.41
2018-07-17T17:25:46.129Z,44.41
2018-07-17T17:28:16.636Z,42.65
2018-07-17T17:30:46.251Z,43.33
2018-07-17T17:33:16.049Z,44.33
2018-07-17T17:35:45.659Z,41.94
2018-07-17T17:38:15.261Z,41.28
2018-07-17T17:40:44.841Z,44.11
2018-07-17T17:43:14.408Z,45.95
2018-07-17T17:45:44.064Z,46.86
2018-07-17T17:48:13.651Z,45.12
2018-07-17T17:50:43.316Z,46.43
2018-07-17T17:53:13.299Z,44.86
2018-07-17T17:55:43.204Z,47.80
2018-07-17T17:58:13.199Z,46.58
2018-07-17T18:00:43.179Z,47.32
2018-07-17T18:03:13.863Z,45.49
2018-07-17T18:05:43.688Z,47.49
2018-07-17T18:08:13.919Z,45.18
2018-07-17T18:10:43.709Z,46.26
2018-07-17T18:13:13.543Z,44.92
2018-07-17T18:15:43.346Z,46.23
2018-07-17T18:18:13.139Z,45.45
2018-07-17T18:20:42.915Z,45.15
2018-07-17T18:23:12.924Z,46.57
2018-07-17T18:25:42.799Z,46.20
2018-07-17T18:28:12.614Z,46.96
2018-07-17T18:30:42.532Z,46.33
2018-07-17T18:33:12.632Z,47.56
2018-07-17T18:35:44.032Z,48.77
2018-07-17T18:38:14.111Z,49.09
2018-07-17T18:40:51.105Z,51.23
2018-07-17T18:43:21.586Z,49.86
2018-07-17T18:45:53.542Z,49.85
2018-07-17T18:48:24.616Z,49.45
2018-07-17T18:50:56.350Z,51.71
2018-07-17T18:53:27.088Z,51.67
2018-07-17T18:55:57.725Z,50.75
2018-07-17T18:58:29.056Z,52.20
2018-07-17T19:00:58.921Z,52.32
2018-07-17T19:03:28.842Z,51.78
2018-07-17T19:05:58.626Z,51.70
2018-07-17T19:08:28.444Z,52.68
2018-07-17T19:10:58.075Z,53.52
2018-07-17T19:13:28.052Z,53.96
2018-07-17T19:15:58.091Z,54.52
2018-07-17T19:18:27.872Z,55.05
2018-07-17T19:20:57.860Z,56.21
2018-07-17T19:23:27.798Z,55.79
2018-07-17T19:25:57.389Z,56.26
2018-07-17T19:28:27.104Z,55.10
2018-07-17T19:30:56.760Z,55.34
2018-07-17T19:33:26.347Z,55.01
2018-07-17T19:35:56.080Z,55.37
2018-07-17T19:38:26.025Z,56.22
2018-07-17T19:40:56.056Z,56.27
2018-07-17T19:43:25.988Z,57.45
2018-07-17T19:45:55.916Z,57.03
2018-07-17T19:48:25.952Z,58.13
2018-07-17T19:50:56.155Z,58.27
2018-07-17T19:53:26.321Z,57.26
2018-07-17T19:55:56.483Z,56.94
2018-07-17T19:58:26.555Z,57.25
2018-07-17T20:00:56.579Z,58.30
2018-07-17T20:03:26.502Z,58.17
2018-07-17T20:05:56.549Z,58.67
2018-07-17T20:08:26.591Z,58.91
2018-07-17T20:10:56.684Z,59.95
2018-07-17T20:13:26.694Z,60.66
2018-07-17T20:15:56.616Z,61.08
2018-07-17T20:18:26.640Z,60.98
2018-07-17T20:20:56.773Z,60.41
2018-07-17T20:23:26.760Z,60.57
2018-07-17T20:25:56.848Z,61.54
2018-07-17T20:28:26.905Z,60.21
2018-07-17T20:30:56.986Z,61.14
2018-07-17T20:33:27.115Z,60.64
2018-07-17T20:35:57.332Z,60.68
2018-07-17T20:38:27.388Z,61.38
2018-07-17T20:40:57.448Z,60.91
2018-07-17T20:43:27.325Z,61.76
2018-07-17T20:45:57.100Z,62.38
2018-07-17T20:48:26.739Z,61.40
2018-07-17T20:50:56.475Z,63.04
2018-07-17T20:53:26.112Z,62.89
2018-07-17T20:55:55.792Z,62.22
2018-07-17T20:58:25.393Z,64.30
2018-07-17T21:00:55.006Z,63.78
2018-07-17T21:03:24.611Z,64.24
2018-07-17T21:05:54.216Z,66.01
2018-07-17T21:08:23.791Z,66.36
2018-07-17T21:10:53.465Z,66.62
2018-07-17T21:13:23.078Z,66.48
2018-07-17T21:15:52.780Z,66.63
2018-07-17T21:18:22.385Z,67.18
2018-07-17T21:20:52.030Z,66.82
2018-07-17T21:23:21.601Z,66.96
2018-07-17T21:25:51.175Z,67.29
2018-07-17T21:28:20.749Z,68.41
2018-07-17T21:30:50.469Z,67.85
2018-07-17T21:33:20.096Z,68.33
2018-07-17T21:35:49.740Z,67.53
2018-07-17T21:38:19.310Z,67.87
2018-07-17T21:40:48.887Z,67.60
2018-07-17T21:43:18.520Z,69.78
2018-07-17T21:45:48.108Z,70.18
2018-07-17T21:48:28.359Z,69.32
2018-07-17T21:50:58.007Z,68.66
2018-07-17T21:53:27.831Z,68.20
2018-07-17T21:55:59.444Z,67.82
2018-07-17T21:58:29.036Z,69.90
2018-07-17T22:00:58.719Z,69.27
2018-07-17T22:03:28.283Z,69.04
2018-07-17T22:05:57.860Z,68.48
2018-07-17T22:08:27.454Z,69.19
2018-07-17T22:10:57.156Z,68.10
2018-07-17T22:13:26.764Z,67.10
2018-07-17T22:15:56.335Z,67.72
2018-07-17T22:18:25.920Z,67.05
2018-07-17T22:20:55.544Z,67.78
2018-07-17T22:23:25.129Z,65.86
2018-07-17T22:25:54.715Z,65.75
2018-07-17T22:28:24.316Z,66.45
2018-07-17T22:30:53.884Z,66.65
2018-07-17T22:33:23.508Z,65.97
2018-07-17T22:35:53.092Z,66.02
2018-07-17T22:38:22.678Z,65.98
2018-07-17T22:40:52.280Z,66.07
2018-07-17T22:43:21.900Z,67.07
2018-07-17T22:45:51.480Z,66.99
2018-07-17T22:48:21.056Z,66.14
2018-07-17T22:50:50.665Z,66.39
2018-07-17T22:53:20.243Z,65.59
2018-07-17T22:55:49.816Z,66.26
2018-07-17T22:58:19.388Z,65.52
2018-07-17T23:00:49.004Z,65.85
2018-07-17T23:03:18.621Z,66.98
2018-07-17T23:05:48.220Z,67.17
2018-07-17T23:08:17.826Z,67.88
2018-07-17T23:10:54.036Z,68.33
2018-07-17T23:13:24.073Z,69.47
2018-07-17T23:15:53.643Z,68.29
2018-07-17T23:18:23.248Z,69.54
2018-07-17T23:20:52.864Z,69.49
2018-07-17T23:23:22.433Z,70.86
2018-07-17T23:25:52.009Z,70.65
2018-07-17T23:28:21.580Z,69.82
2018-07-17T23:30:51.157Z,70.28
2018-07-17T23:33:20.740Z,69.80
2018-07-17T23:35:50.310Z,71.05
2018-07-17T23:38:19.903Z,71.17
2018-07-17T23:40:49.485Z,70.79
2018-07-17T23:43:19.051Z,70.84
2018-07-17T23:45:48.620Z,71.03
2018-07-17T23:48:18.202Z,71.19
2018-07-17T23:50:47.784Z,71.42
2018-07-17T23:53:17.370Z,71.34
2018-07-17T23:55:47.006Z,71.93
2018-07-17T23:58:16.605Z,71.26
